Time;durP1;ratioP1;P1;durP2;ratioP2;P2;SDS_P1;SDS_P2;PMS_P1;PMS_P2;Temp;Humidity;BMP_temperature;BMP_pressure;BME280_temperature;BME280_humidity;BME280_pressure;Samples;Min_cycle;Max_cycle;Signal;HPM_P1;HPM_P2
2021/01/01 16:30:07;;;;;;;50.35;19.83;;;;;;;;;;5180773;23;20064;-82
2021/01/01 16:32:33;;;;;;;50.45;20.85;;;;;;;;;;4887100;29;20045;-81
2021/01/01 16:34:59;;;;;;;50.83;19.70;;;;;;;;;;4886187;29;20059;-81
2021/01/01 16:37:25;;;;;;;53.28;20.38;;;;;;;;;;4885769;29;20396;-82
2021/01/01 16:39:54;;;;;;;53.45;20.40;;;;;;;;;;4872642;29;20049;-82
2021/01/01 16:42:22;;;;;;;47.50;21.00;;;;;;;;;;4868428;29;20658;-81
2021/01/01 16:44:49;;;;;;;47.67;18.75;;;;;;;;;;4865865;29;20148;-81
2021/01/01 16:47:15;;;;;;;93.60;43.60;;;;;;;;;;4863343;29;20053;-80
2021/01/01 16:49:42;;;;;;;61.88;27.13;;;;;;;;;;4864401;29;20081;-82
2021/01/01 16:52:08;;;;;;;55.08;21.83;;;;;;;;;;4866632;29;20109;-81
2021/01/01 16:54:34;;;;;;;48.15;20.38;;;;;;;;;;4863222;29;20053;-81
2021/01/01 16:57:00;;;;;;;53.92;20.90;;;;;;;;;;4863771;29;20769;-82
2021/01/01 16:59:26;;;;;;;50.55;21.70;;;;;;;;;;4862684;29;20049;-81
2021/01/01 17:01:53;;;;;;;57.83;22.77;;;3.00;99.90;;;;;;4863488;29;20137;-80
2021/01/01 17:04:21;;;;;;;50.13;21.35;;;;;;;;;;4863089;29;20073;-81
2021/01/01 17:06:47;;;;;;;57.72;22.42;;;;;;;;;;4864314;29;20053;-80
2021/01/01 17:09:13;;;;;;;56.03;23.13;;;;;;;;;;4862807;29;20136;-80
2021/01/01 17:11:42;;;;;;;56.28;23.05;;;3.10;99.90;;;;;;4861879;29;20052;-82
2021/01/01 17:14:08;;;;;;;58.17;22.67;;;;;;;;;;4862013;29;20076;-82
2021/01/01 17:16:35;;;;;;;64.85;24.13;;;3.00;99.90;;;;;;4862096;29;20646;-82
2021/01/01 17:19:01;;;;;;;61.00;25.80;;;2.80;99.90;;;;;;4863488;29;20380;-82
2021/01/01 17:21:28;;;;;;;59.92;25.52;;;;;;;;;;4862625;29;20617;-81
2021/01/01 17:23:55;;;;;;;59.00;23.83;;;3.00;99.90;;;;;;4861916;29;20086;-80
2021/01/01 17:26:23;;;;;;;57.55;23.95;;;3.00;99.90;;;;;;4862397;29;20045;-80
2021/01/01 17:28:49;;;;;;;62.38;24.05;;;;;;;;;;4862138;29;20037;-82
2021/01/01 17:31:16;;;;;;;59.30;24.55;;;3.00;99.90;;;;;;4863060;29;20045;-81
2021/01/01 17:33:42;;;;;;;66.93;24.42;;;;;;;;;;4862246;29;20456;-81
2021/01/01 17:36:08;;;;;;;57.95;23.48;;;;;;;;;;4862820;29;20101;-81
2021/01/01 17:38:35;;;;;;;57.95;24.15;;;;;;;;;;4861414;29;20054;-80
2021/01/01 17:41:02;;;;;;;63.60;24.65;;;3.10;99.90;;;;;;4861649;29;20046;-80
2021/01/01 17:43:28;;;;;;;50.38;22.80;;;;;;;;;;4861424;29;20046;-81
2021/01/01 17:45:54;;;;;;;57.97;24.33;;;;;;;;;;4863242;29;20073;-82
2021/01/01 17:48:19;;;;;;;58.50;22.65;;;3.00;99.90;;;;;;4861389;29;20060;-81
2021/01/01 17:50:46;;;;;;;56.80;23.10;;;;;;;;;;4861474;29;20052;-81
2021/01/01 17:53:13;;;;;;;53.95;21.65;;;3.10;99.90;;;;;;4861395;29;20041;-81
2021/01/01 17:55:40;;;;;;;56.80;22.48;;;;;;;;;;4861664;29;20452;-81
2021/01/01 17:58:06;;;;;;;51.60;22.52;;;;;;;;;;4861414;29;20082;-81
2021/01/01 18:00:32;;;;;;;61.10;23.85;;;;;;;;;;4862170;29;20046;-81
2021/01/01 18:02:58;;;;;;;62.50;23.50;;;;;;;;;;4862183;29;20094;-81
2021/01/01 18:05:24;;;;;;;52.78;20.95;;;;;;;;;;4861838;29;20102;-83
2021/01/01 18:07:50;;;;;;;55.72;22.45;;;;;;;;;;4861549;29;20049;-81
2021/01/01 18:10:16;;;;;;;54.17;21.92;;;;;;;;;;4861437;29;20064;-80
2021/01/01 18:12:43;;;;;;;50.92;21.70;;;;;;;;;;4864501;29;20049;-81
2021/01/01 18:15:10;;;;;;;55.00;20.63;;;;;;;;;;4864789;29;20054;-82
2021/01/01 18:17:37;;;;;;;50.67;21.23;;;;;;;;;;4865422;29;20144;-82
2021/01/01 18:20:04;;;;;;;54.53;21.77;;;;;;;;;;4865344;29;20045;-80
2021/01/01 18:22:33;;;;;;;55.88;22.05;;;3.00;99.90;;;;;;4865766;29;20045;-81
2021/01/01 18:25:00;;;;;;;48.40;21.17;;;;;;;;;;4865033;29;20132;-81
2021/01/01 18:27:26;;;;;;;52.90;22.08;;;;;;;;;;4865395;29;20463;-81
2021/01/01 18:29:54;;;;;;;50.83;22.48;;;3.00;99.90;;;;;;4865024;29;20085;-80
2021/01/01 18:32:26;;;;;;;53.45;21.88;;;3.10;99.90;;;;;;4864553;29;20064;-80
2021/01/01 18:34:53;;;;;;;50.30;21.30;;;3.00;99.90;;;;;;4867936;29;20503;-79
2021/01/01 18:37:21;;;;;;;60.30;24.00;;;3.00;99.90;;;;;;4865233;29;20060;-79
2021/01/01 18:39:48;;;;;;;59.67;22.83;;;3.10;99.90;;;;;;4864436;29;20037;-81
2021/01/01 18:42:16;;;;;;;63.83;23.35;;;3.10;99.90;;;;;;4865232;29;20050;-79
2021/01/01 18:44:42;;;;;;;56.53;24.60;;;;;;;;;;4864871;29;20053;-80
2021/01/01 18:47:14;;;;;;;59.60;23.63;;;3.10;99.90;;;;;;4865203;29;20124;-80
2021/01/01 18:49:42;;;;;;;72.18;31.67;;;3.10;99.90;;;;;;4865075;29;20118;-81
2021/01/01 18:52:08;;;;;;;57.28;24.63;;;;;;;;;;4864672;29;20057;-79
2021/01/01 18:54:36;;;;;;;61.03;26.73;;;3.10;99.90;;;;;;4866096;29;20148;-81
2021/01/01 18:57:24;;;;;;;58.63;23.45;;;3.10;99.90;;;;;;4866561;29;20461;-79
2021/01/01 19:00:10;;;;;;;54.88;24.30;;;3.10;99.90;;;;;;4867575;29;20076;-79
2021/01/01 19:03:25;;;;;;;54.83;23.55;;;3.10;99.90;;;;;;4868225;29;20053;-80
2021/01/01 19:06:19;;;;;;;50.20;22.27;;;3.20;99.90;;;;;;4868766;29;20703;-79
2021/01/01 19:08:50;;;;;;;57.05;24.38;;;3.20;99.90;;;;;;4852862;29;20049;-80
2021/01/01 19:11:18;;;;;;;57.88;23.88;;;3.20;99.90;;;;;;4868940;29;20029;-78
2021/01/01 19:13:44;;;;;;;52.55;22.38;;;;;;;;;;4864386;29;20122;-78
2021/01/01 19:16:12;;;;;;;54.10;22.45;;;3.20;99.90;;;;;;4878308;29;20562;-78
2021/01/01 19:18:55;;;;;;;58.28;23.52;;;3.20;99.90;;;;;;4902021;29;20509;-78
2021/01/01 19:21:24;;;;;;;49.95;22.00;;;3.20;99.90;;;;;;4902240;29;20565;-78
2021/01/01 19:23:52;;;;;;;54.55;23.33;;;3.20;99.90;;;;;;4902861;29;20052;-78
2021/01/01 19:26:20;;;;;;;60.67;22.67;;;3.20;99.90;;;;;;4903755;29;20045;-78
2021/01/01 19:28:56;;;;;;;56.80;23.73;;;3.20;99.90;;;;;;4906704;29;20068;-79
2021/01/01 19:31:30;;;;;;;50.05;20.95;;;3.30;99.90;;;;;;4906302;29;20072;-79
2021/01/01 19:34:43;;;;;;;55.58;22.63;;;3.20;99.90;;;;;;4905037;29;20048;-78
2021/01/01 19:37:19;;;;;;;51.45;21.08;;;3.20;99.90;;;;;;4904502;29;20119;-80
2021/01/01 19:40:36;;;;;;;52.35;22.13;;;3.30;99.90;;;;;;4902615;29;20055;-78
2021/01/01 19:43:35;;;;;;;55.20;22.35;;;3.20;99.90;;;;;;4849831;29;20042;-78
2021/01/01 19:46:06;;;;;;;52.27;22.20;;;3.30;99.90;;;;;;4863451;29;20076;-78
2021/01/01 19:49:13;;;;;;;50.50;22.10;;;3.30;99.90;;;;;;4890374;29;20804;-80
2021/01/01 19:52:13;;;;;;;49.67;22.25;;;3.20;99.90;;;;;;4900867;29;20139;-81
2021/01/01 19:54:49;;;;;;;40.22;17.45;;;3.30;99.90;;;;;;4896755;29;20522;-80
2021/01/01 19:57:32;;;;;;;54.28;21.55;;;3.30;99.90;;;;;;4901092;29;20043;-79
2021/01/01 20:00:05;;;;;;;47.22;20.08;;;3.30;99.90;;;;;;4902367;29;20048;-79
2021/01/01 20:02:31;;;;;;;53.53;23.05;;;;;;;;;;4903920;29;20052;-79
2021/01/01 20:04:57;;;;;;;61.70;23.90;;;3.30;99.90;;;;;;4898837;29;20105;-78
2021/01/01 20:07:33;;;;;;;46.83;20.92;;;3.30;99.90;;;;;;4867910;29;20041;-79
2021/01/01 20:10:03;;;;;;;48.40;23.20;;;3.30;99.90;;;;;;4866493;29;20049;-78
2021/01/01 20:12:49;;;;;;;;;;;3.30;99.90;;;;;;4867607;29;20069;-79
2021/01/01 20:15:17;;;;;;;53.42;22.67;;;3.20;99.90;;;;;;4867332;29;19924;-78
2021/01/01 20:17:51;;;;;;;52.25;23.67;;;4.10;99.90;;;;;;4863704;29;20041;-79
2021/01/01 20:20:17;;;;;;;58.97;22.50;;;3.20;99.90;;;;;;4862161;29;20411;-79
2021/01/01 20:22:45;;;;;;;52.95;22.40;;;3.20;99.90;;;;;;4862344;29;20060;-78
2021/01/01 20:25:14;;;;;;;51.50;23.30;;;3.30;99.90;;;;;;4863194;29;20037;-79
2021/01/01 20:27:41;;;;;;;48.08;21.52;;;3.40;99.90;;;;;;4864856;29;20105;-77
2021/01/01 20:30:10;;;;;;;53.22;23.50;;;3.30;99.90;;;;;;4863529;29;20519;-78
2021/01/01 20:32:37;;;;;;;59.80;24.10;;;3.20;99.90;;;;;;4862994;29;20053;-78
2021/01/01 20:35:06;;;;;;;61.72;23.90;;;3.20;99.90;;;;;;4866793;29;20104;-78
2021/01/01 20:37:40;;;;;;;58.33;25.13;;;3.20;99.90;;;;;;4865242;29;20076;-78
2021/01/01 20:40:09;;;;;;;55.88;24.38;;;3.20;99.90;;;;;;4862902;29;20097;-79
2021/01/01 20:43:19;;;;;;;62.78;25.20;;;3.10;99.90;;;;;;4864082;29;20057;-78
2021/01/01 20:52:26;;;;;;;56.90;21.25;;;3.30;99.90;;;;;;4863898;29;20126;-78
2021/01/01 20:57:20;;;;;;;48.35;21.50;;;3.30;99.90;;;;;;4864666;29;20056;-79
2021/01/01 20:59:47;;;;;;;50.35;21.98;;;3.30;99.90;;;;;;4864470;29;20128;-78
2021/01/01 21:02:15;;;;;;;52.50;21.43;;;3.30;99.90;;;;;;4864731;29;20041;-78
2021/01/01 21:04:42;;;;;;;57.00;22.27;;;3.10;99.90;;;;;;4862948;29;20479;-79
2021/01/01 21:07:16;;;;;;;54.15;20.60;;;3.10;99.90;;;;;;4863355;29;20049;-79
2021/01/01 21:09:46;;;;;;;58.17;22.40;;;3.10;99.90;;;;;;4862789;29;20052;-79
2021/01/01 21:12:42;;;;;;;48.75;21.02;;;3.10;99.90;;;;;;4862582;29;20053;-79
2021/01/01 21:15:24;;;;;;;53.67;21.65;;;3.00;99.90;;;;;;4862524;29;20452;-77
2021/01/01 21:18:23;;;;;;;53.42;20.50;;;3.00;99.90;;;;;;4862639;29;20041;-79
2021/01/01 21:21:17;;;;;;;49.80;20.55;;;3.00;99.90;;;;;;4851810;29;20059;-78
2021/01/01 21:24:02;;;;;;;51.58;21.05;;;3.00;99.90;;;;;;4862325;29;20061;-78
2021/01/01 21:27:04;;;;;;;53.45;21.77;;;3.00;99.90;;;;;;4862705;29;20057;-78
2021/01/01 21:29:55;;;;;;;60.70;20.52;;;3.00;99.90;;;;;;4862761;29;20555;-78
2021/01/01 21:32:59;;;;;;;68.45;24.63;;;3.00;99.90;;;;;;4864012;29;20046;-78
2021/01/01 21:35:30;;;;;;;62.35;22.15;;;2.90;99.90;;;;;;4864060;29;20052;-78
2021/01/01 21:38:25;;;;;;;61.85;24.15;;;2.90;99.90;;;;;;4863925;29;20098;-78
2021/01/01 21:41:10;;;;;;;62.90;24.17;;;2.80;99.90;;;;;;4859899;29;20049;-79
2021/01/01 21:44:13;;;;;;;56.00;22.27;;;2.80;99.90;;;;;;4862427;29;20093;-78
2021/01/01 21:47:10;;;;;;;54.03;22.20;;;2.90;99.90;;;;;;4866275;29;20049;-78
2021/01/01 21:49:43;;;;;;;60.83;23.08;;;2.80;99.90;;;;;;4866817;29;20053;-79
2021/01/01 21:52:16;;;;;;;64.85;24.63;;;2.90;99.90;;;;;;4867335;29;20056;-78
2021/01/01 21:54:42;;;;;;;61.63;23.10;;;;;;;;;;4867235;29;20061;-78
2021/01/01 21:57:08;;;;;;;54.17;21.70;;;;;;;;;;4867985;29;20050;-79
2021/01/01 21:59:34;;;;;;;61.95;23.90;;;;;;;;;;4872183;29;20512;-79
2021/01/01 22:02:08;;;;;;;65.00;25.33;;;2.80;99.90;;;;;;4886380;29;20052;-81
2021/01/01 22:04:35;;;;;;;61.15;24.75;;;2.80;99.90;;;;;;4873540;29;20045;-79
2021/01/01 22:07:02;;;;;;;63.53;24.70;;;2.70;99.90;;;;;;4874830;29;20140;-78
2021/01/01 22:09:28;;;;;;;62.70;25.75;;;;;;;;;;4873066;29;20045;-79
2021/01/01 22:11:54;;;;;;;62.88;25.30;;;;;;;;;;4874950;29;20049;-79
2021/01/01 22:14:20;;;;;;;67.35;25.70;;;;;;;;;;4888978;29;20121;-78
2021/01/01 22:16:46;;;;;;;60.92;26.25;;;2.80;99.90;;;;;;4886540;29;20057;-78
2021/01/01 22:19:12;;;;;;;65.00;27.40;;;2.80;99.90;;;;;;4884213;29;20049;-79
2021/01/01 22:21:38;;;;;;;68.18;27.90;;;;;;;;;;4884042;29;20502;-77
2021/01/01 22:24:06;;;;;;;60.53;23.83;;;2.80;99.90;;;;;;4884856;29;20112;-78
2021/01/01 22:26:32;;;;;;;69.25;25.88;;;;;;;;;;4884856;29;20069;-78
2021/01/01 22:28:58;;;;;;;69.60;26.83;;;2.90;99.90;;;;;;4886986;29;20058;-79
2021/01/01 22:31:23;;;;;;;59.33;24.60;;;2.80;99.90;;;;;;4889820;29;20117;-78
2021/01/01 22:33:49;;;;;;;65.45;25.27;;;2.80;99.90;;;;;;4888917;29;20049;-78
2021/01/01 22:36:16;;;;;;;63.00;24.52;;;;;;;;;;4887141;29;20055;-78
2021/01/01 22:38:42;;;;;;;64.78;26.42;;;;;;;;;;4887635;29;20044;-79
2021/01/01 22:41:09;;;;;;;72.68;28.05;;;2.90;99.90;;;;;;4887247;29;20055;-78
2021/01/01 22:43:35;;;;;;;70.47;25.48;;;;;;;;;;4886456;29;20079;-79
2021/01/01 22:46:01;;;;;;;67.70;25.70;;;;;;;;;;4888990;29;20491;-80
2021/01/01 22:48:27;;;;;;;57.08;23.50;;;;;;;;;;4888548;29;20052;-78
2021/01/01 22:50:53;;;;;;;67.17;25.80;;;;;;;;;;4873962;29;20049;-78
2021/01/01 22:53:20;;;;;;;61.05;24.70;;;;;;;;;;4867374;29;20049;-79
2021/01/01 22:55:46;;;;;;;63.75;25.73;;;;;;;;;;4867601;29;20053;-79
2021/01/01 22:58:16;;;;;;;67.35;24.80;;;2.80;99.90;;;;;;4866870;29;20052;-80
2021/01/01 23:00:43;;;;;;;54.88;24.33;;;2.80;99.90;;;;;;4866983;29;20046;-78
2021/01/01 23:03:09;;;;;;;63.08;24.92;;;;;;;;;;4867163;29;20106;-79
2021/01/01 23:05:37;;;;;;;65.85;27.90;;;2.80;99.90;;;;;;4866665;29;20093;-78
2021/01/01 23:08:03;;;;;;;64.93;27.30;;;2.70;99.90;;;;;;4866779;29;20049;-79
2021/01/01 23:10:30;;;;;;;63.88;26.08;;;;;;;;;;4866725;29;20504;-78
2021/01/01 23:12:57;;;;;;;67.03;27.05;;;2.70;99.90;;;;;;4865750;29;20053;-79
2021/01/01 23:15:23;;;;;;;67.40;25.70;;;;;;;;;;4865546;29;20050;-79
2021/01/01 23:17:50;;;;;;;65.13;26.05;;;2.70;99.90;;;;;;4865332;29;20237;-78
2021/01/01 23:20:20;;;;;;;62.25;25.88;;;2.70;99.90;;;;;;4866412;29;20531;-78
2021/01/01 23:22:50;;;;;;;60.47;26.95;;;2.70;99.90;;;;;;4867907;29;20408;-79
2021/01/01 23:25:21;;;;;;;63.10;26.48;;;2.70;99.90;;;;;;4866220;29;20045;-80
2021/01/01 23:28:15;;;;;;;66.55;28.05;;;2.70;99.90;;;;;;4866102;29;20042;-79
2021/01/01 23:30:50;;;;;;;63.33;26.92;;;2.70;99.90;;;;;;4865842;29;20050;-78
2021/01/01 23:33:29;;;;;;;68.65;27.00;;;2.70;99.90;;;;;;4866312;29;20087;-78
2021/01/01 23:36:02;;;;;;;57.10;24.08;;;2.70;99.90;;;;;;4867240;29;20045;-78
2021/01/01 23:38:59;;;;;;;69.40;26.13;;;2.60;99.90;;;;;;4865110;29;20045;-78
2021/01/01 23:41:25;;;;;;;76.30;27.02;;;2.70;99.90;;;;;;4845964;29;20080;-78
2021/01/01 23:44:05;;;;;;;76.88;29.83;;;2.80;99.90;;;;;;4867199;29;20057;-78
2021/01/01 23:46:33;;;;;;;67.60;26.98;;;2.80;99.90;;;;;;4883469;29;20044;-78
2021/01/01 23:49:03;;;;;;;62.55;25.15;;;2.80;99.90;;;;;;4883884;29;20037;-79
2021/01/01 23:51:31;;;;;;;58.85;24.70;;;2.80;99.90;;;;;;4884588;29;20116;-78
2021/01/01 23:54:03;;;;;;;75.32;30.02;;;2.90;99.90;;;;;;4883231;29;20085;-79
2021/01/01 23:56:29;;;;;;;66.15;26.42;;;2.80;99.90;;;;;;4883552;29;20049;-79
2021/01/01 23:59:00;;;;;;;64.32;27.13;;;2.80;99.90;;;;;;4883599;29;20060;-79
